Terminal Aerodrome Forecast
Issued by NWS Jackson, KY

Home | Current Version | Previous Version | Text Only | Print | Product List | Glossary On
Versions: 1 2 3 4 5 6 7 8 9 10 11 12 13 14 15 16 17
000
FTUS43 KJKL 221120
TAFJKL
TAF
KJKL 221120Z 2212/2312 VRB04KT P6SM VCSH BKN120
     FM221500 11002KT 6SM -SHRA SCT030 OVC060
     FM221800 17003KT 5SM SHRA VCTS FEW015CB OVC030
     FM230300 16005KT 4SM SHRA OVC015=

USA.gov is the U.S. government's official web portal to all federal, state and local government web resources and services.